createdAt,value
2019-03-09T00:00:01.395Z,99334.82
2019-03-09T00:02:30.481Z,99337.01
2019-03-09T00:04:59.568Z,99316.09
2019-03-09T00:07:28.983Z,99306.09
2019-03-09T00:09:58.200Z,99295.50
2019-03-09T00:12:27.340Z,99290.73
2019-03-09T00:14:56.713Z,99279.86
2019-03-09T00:17:25.854Z,99285.98
2019-03-09T00:19:56.903Z,99290.25
2019-03-09T00:22:25.961Z,99276.22
2019-03-09T00:25:03.080Z,99279.59
2019-03-09T00:27:46.330Z,99276.61
2019-03-09T00:30:23.419Z,99270.44
2019-03-09T00:32:52.493Z,99280.14
2019-03-09T00:35:21.608Z,99266.92
2019-03-09T00:37:50.702Z,99265.17
2019-03-09T00:40:20.106Z,99261.67
2019-03-09T00:42:49.181Z,99265.47
2019-03-09T00:45:18.270Z,99257.16
2019-03-09T00:47:47.444Z,99263.78
2019-03-09T00:50:16.487Z,99272.47
2019-03-09T00:52:45.555Z,99272.05
2019-03-09T00:55:14.713Z,99276.41
2019-03-09T00:57:43.805Z,99258.62
2019-03-09T01:00:19.954Z,99273.91
2019-03-09T01:02:51.057Z,99264.84
2019-03-09T01:05:19.958Z,99264.04
2019-03-09T01:07:49.270Z,99251.50
2019-03-09T01:10:18.350Z,99242.00
2019-03-09T01:12:47.388Z,99238.14
2019-03-09T01:15:16.678Z,99238.14
2019-03-09T01:17:46.329Z,99233.05
2019-03-09T01:20:16.473Z,99230.45
2019-03-09T01:22:45.546Z,99218.45
2019-03-09T01:25:14.703Z,99214.14
2019-03-09T01:27:43.899Z,99207.65
2019-03-09T01:30:15.830Z,99204.66
2019-03-09T01:32:44.881Z,99205.95
2019-03-09T01:35:14.583Z,99201.63
2019-03-09T01:37:43.698Z,99203.78
2019-03-09T01:40:12.805Z,99203.42
2019-03-09T01:42:41.926Z,99186.48
2019-03-09T01:53:10.604Z,99169.28
2019-03-09T01:55:39.724Z,99161.88
2019-03-09T01:58:08.851Z,99160.09
2019-03-09T02:00:37.976Z,99147.06
2019-03-09T02:03:07.101Z,99154.86
2019-03-09T02:05:36.277Z,99157.95
2019-03-09T02:08:05.494Z,99136.20
2019-03-09T02:10:34.650Z,99127.13
2019-03-09T02:13:03.806Z,99137.23
2019-03-09T02:15:33.032Z,99146.75
2019-03-09T02:18:02.222Z,99146.75
2019-03-09T02:20:31.307Z,99140.15
2019-03-09T02:23:00.473Z,99124.58
2019-03-09T02:25:29.568Z,99119.23
2019-03-09T02:27:58.708Z,99127.97
2019-03-09T02:30:27.899Z,99114.46
2019-03-09T02:32:56.980Z,99124.52
2019-03-09T02:35:26.118Z,99118.80
2019-03-09T02:37:57.028Z,99110.55
2019-03-09T02:40:26.696Z,99106.63
2019-03-09T02:42:55.838Z,99094.88
2019-03-09T02:45:25.504Z,99115.84
2019-03-09T02:47:54.734Z,99112.33
2019-03-09T02:50:23.916Z,99094.38
2019-03-09T02:52:53.066Z,99109.17
2019-03-09T02:55:22.188Z,99097.41
2019-03-09T02:57:51.396Z,98925.98
2019-03-09T03:00:20.677Z,99095.23
2019-03-09T03:02:56.256Z,99100.04
2019-03-09T03:05:25.391Z,99102.64
2019-03-09T03:07:54.545Z,99098.71
2019-03-09T03:10:23.663Z,99096.94
2019-03-09T03:12:52.989Z,99117.84
2019-03-09T03:15:32.586Z,99108.30
2019-03-09T03:18:01.799Z,99105.73
2019-03-09T03:20:31.021Z,99103.53
2019-03-09T03:23:00.401Z,98701.58
2019-03-09T03:25:29.582Z,99105.17
2019-03-09T03:27:58.865Z,99094.25
2019-03-09T03:30:28.132Z,99110.75
2019-03-09T03:32:57.877Z,99113.31
2019-03-09T03:35:27.155Z,99103.75
2019-03-09T03:37:56.270Z,99111.09
2019-03-09T03:40:25.489Z,99111.53
2019-03-09T03:42:54.615Z,99104.97
2019-03-09T03:45:23.800Z,99111.92
2019-03-09T03:47:52.982Z,99121.42
2019-03-09T03:50:22.254Z,99107.86
2019-03-09T03:52:51.412Z,99120.48
2019-03-09T03:55:20.539Z,99122.61
2019-03-09T03:57:49.678Z,99115.19
2019-03-09T04:00:18.854Z,99110.81
2019-03-09T04:02:48.094Z,99120.81
2019-03-09T04:05:17.323Z,99113.77
2019-03-09T04:07:46.472Z,99116.34
2019-03-09T04:10:15.603Z,99120.70
2019-03-09T04:12:44.752Z,99114.17
2019-03-09T04:15:14.172Z,99106.27
2019-03-09T04:17:43.767Z,99116.72
2019-03-09T04:20:12.945Z,99126.20
2019-03-09T04:22:42.071Z,99137.02
2019-03-09T04:25:11.288Z,99126.06
2019-03-09T04:27:40.770Z,99114.30
2019-03-09T04:30:09.976Z,99129.06
2019-03-09T04:32:39.151Z,99150.34
2019-03-09T04:35:08.237Z,99147.32
2019-03-09T04:37:37.396Z,99157.72
2019-03-09T04:40:06.670Z,99178.23
2019-03-09T04:42:35.792Z,99158.53
2019-03-09T04:45:05.463Z,99161.13
2019-03-09T04:47:34.657Z,99162.44
2019-03-09T04:50:03.987Z,99163.70
2019-03-09T04:52:33.192Z,99168.08
2019-03-09T04:55:02.414Z,99184.63
2019-03-09T04:57:31.686Z,99181.08
2019-03-09T05:00:00.900Z,99185.77
2019-03-09T05:02:29.957Z,99173.99
2019-03-09T05:04:59.048Z,99187.02
2019-03-09T05:07:40.168Z,99196.14
2019-03-09T05:14:30.515Z,99204.83
2019-03-09T05:17:01.836Z,99230.59
2019-03-09T05:19:35.175Z,99229.13
2019-03-09T05:22:21.128Z,99211.22
2019-03-09T05:25:09.396Z,99219.45
2019-03-09T05:27:47.420Z,99221.58
2019-03-09T05:30:48.954Z,99224.55
2019-03-09T05:33:27.898Z,99233.63
2019-03-09T05:39:31.354Z,99240.57
2019-03-09T05:42:09.793Z,99254.52
2019-03-09T05:44:57.090Z,99263.16
2019-03-09T05:48:08.314Z,99271.10
2019-03-09T05:50:40.617Z,99276.69
2019-03-09T05:53:19.957Z,99278.80
2019-03-09T05:55:50.451Z,99280.95
2019-03-09T05:58:20.246Z,99271.41
2019-03-09T06:00:51.810Z,99278.80
2019-03-09T06:03:22.061Z,99273.95
2019-03-09T06:06:08.584Z,99261.22
2019-03-09T06:08:38.717Z,99253.77
2019-03-09T06:11:30.846Z,99252.91
2019-03-09T06:14:01.128Z,99258.98
2019-03-09T06:16:41.577Z,99263.39
2019-03-09T06:19:17.116Z,99256.84
2019-03-09T06:21:47.177Z,99253.67
2019-03-09T06:24:16.985Z,99258.89
2019-03-09T06:26:47.286Z,99267.14
2019-03-09T06:29:20.200Z,99275.01
2019-03-09T06:32:29.358Z,99278.41
2019-03-09T06:35:45.355Z,99287.53
2019-03-09T06:38:42.049Z,99288.11
2019-03-09T06:41:27.941Z,99302.80
2019-03-09T06:44:23.524Z,99320.07
2019-03-09T06:47:36.122Z,99337.02
2019-03-09T06:50:05.561Z,99352.18
2019-03-09T07:03:38.036Z,99346.02
2019-03-09T07:06:18.250Z,99355.70
2019-03-09T07:08:51.237Z,99377.49
2019-03-09T07:11:39.575Z,99388.36
2019-03-09T07:14:55.399Z,99390.61
2019-03-09T07:21:37.529Z,99369.08
2019-03-09T07:25:05.168Z,99393.84
2019-03-09T07:27:33.325Z,99401.63
2019-03-09T07:38:31.796Z,99390.24
2019-03-09T07:41:03.758Z,99392.84
2019-03-09T07:43:49.434Z,99397.17
2019-03-09T07:46:19.524Z,99382.67
2019-03-09T07:48:49.049Z,99414.98
2019-03-09T07:51:18.391Z,99420.63
2019-03-09T07:53:47.508Z,99428.06
2019-03-09T07:56:16.895Z,99430.22
2019-03-09T07:58:45.981Z,99405.76
2019-03-09T08:01:15.167Z,99406.59
2019-03-09T08:03:44.456Z,99417.03
2019-03-09T08:06:13.634Z,99409.51
2019-03-09T08:08:42.744Z,99415.60
2019-03-09T08:11:11.903Z,99412.47
2019-03-09T08:13:40.992Z,99410.65
2019-03-09T08:16:10.257Z,99414.02
2019-03-09T08:18:39.408Z,99422.70
2019-03-09T08:21:08.507Z,99434.83
2019-03-09T08:23:37.886Z,99442.78
2019-03-09T08:26:07.124Z,99441.77
2019-03-09T08:28:37.019Z,99446.42
2019-03-09T08:31:06.128Z,99438.86
2019-03-09T08:33:35.274Z,99437.55
2019-03-09T08:36:04.486Z,99434.95
2019-03-09T08:38:33.644Z,99428.38
2019-03-09T08:41:02.762Z,99431.50
2019-03-09T08:43:31.836Z,99421.81
2019-03-09T08:46:00.877Z,99423.72
2019-03-09T08:48:30.038Z,99417.98
2019-03-09T08:50:59.295Z,99408.89
2019-03-09T08:53:28.458Z,99404.85
2019-03-09T08:55:57.519Z,99402.28
2019-03-09T08:58:26.723Z,99407.45
2019-03-09T09:00:55.859Z,99419.73
2019-03-09T09:03:24.922Z,99420.70
2019-03-09T09:05:54.071Z,99424.52
2019-03-09T09:08:23.131Z,99438.96
2019-03-09T09:10:52.310Z,99430.59
2019-03-09T09:13:21.498Z,99428.34
2019-03-09T09:15:50.593Z,99439.97
2019-03-09T09:18:20.537Z,99440.29
2019-03-09T09:20:49.608Z,99457.28
2019-03-09T09:23:18.704Z,99453.32
2019-03-09T09:25:47.766Z,99448.38
2019-03-09T09:28:16.851Z,99444.35
2019-03-09T09:30:45.985Z,99449.01
2019-03-09T09:33:15.282Z,99440.17
2019-03-09T09:35:44.343Z,99443.30
2019-03-09T09:38:13.443Z,99433.20
2019-03-09T09:40:45.334Z,99420.47
2019-03-09T09:43:14.405Z,99415.54
2019-03-09T09:45:43.533Z,99421.16
2019-03-09T09:48:12.683Z,99416.08
2019-03-09T09:50:41.870Z,99421.61
2019-03-09T09:53:11.001Z,99430.31
2019-03-09T09:55:42.727Z,99426.48
2019-03-09T09:58:11.767Z,99425.71
2019-03-09T10:00:40.919Z,99444.73
2019-03-09T10:03:10.016Z,99456.77
2019-03-09T10:05:39.043Z,99456.13
2019-03-09T10:08:08.184Z,99458.14
2019-03-09T10:10:37.263Z,99463.40
2019-03-09T10:13:06.438Z,99455.03
2019-03-09T10:15:35.584Z,99448.02
2019-03-09T10:18:04.623Z,99426.56
2019-03-09T10:20:33.679Z,99421.39
2019-03-09T10:23:04.810Z,99414.31
2019-03-09T10:25:33.563Z,99422.36
2019-03-09T10:28:02.911Z,99414.95
2019-03-09T10:30:32.295Z,99418.61
2019-03-09T10:33:01.423Z,99420.59
2019-03-09T10:35:30.469Z,99429.45
2019-03-09T10:37:59.712Z,99424.14
2019-03-09T10:40:28.804Z,99417.56
2019-03-09T10:42:57.862Z,99426.81
2019-03-09T10:45:27.118Z,99408.17
2019-03-09T10:47:56.253Z,99408.72
2019-03-09T10:50:26.101Z,99406.59
2019-03-09T10:52:55.270Z,99421.60
2019-03-09T10:55:24.442Z,99391.19
2019-03-09T10:57:53.554Z,99410.06
2019-03-09T11:00:27.588Z,99394.22
2019-03-09T11:02:56.724Z,99375.83
2019-03-09T11:05:26.036Z,99381.32
2019-03-09T11:07:55.196Z,99371.81
2019-03-09T11:10:24.477Z,99372.84
2019-03-09T11:12:53.529Z,99364.20
2019-03-09T11:15:22.711Z,99358.81
2019-03-09T11:17:51.847Z,99376.19
2019-03-09T11:20:20.966Z,99358.46
2019-03-09T11:22:50.027Z,99372.22
2019-03-09T11:25:19.091Z,99348.41
2019-03-09T11:27:48.272Z,99350.32
2019-03-09T11:30:19.550Z,99376.53
2019-03-09T11:32:48.618Z,99391.75
2019-03-09T11:35:17.870Z,99379.23
2019-03-09T11:37:46.899Z,99382.67
2019-03-09T11:40:16.153Z,99347.70
2019-03-09T11:42:45.174Z,99360.28
2019-03-09T11:45:14.360Z,99354.55
2019-03-09T11:47:43.367Z,99352.13
2019-03-09T11:50:12.445Z,99346.28
2019-03-09T11:52:41.551Z,99308.55
2019-03-09T11:55:11.005Z,99356.26
2019-03-09T11:57:40.042Z,99302.92
2019-03-09T12:00:10.266Z,99309.11
2019-03-09T12:02:39.468Z,99305.66
2019-03-09T12:05:09.263Z,99290.23
2019-03-09T12:07:38.334Z,99282.20
2019-03-09T12:10:07.847Z,99238.78
2019-03-09T12:12:36.941Z,99236.40
2019-03-09T12:15:06.287Z,99234.02
2019-03-09T12:17:35.343Z,99208.70
2019-03-09T12:20:04.735Z,99202.75
2019-03-09T12:22:33.803Z,99198.94
2019-03-09T12:25:02.989Z,99186.50
2019-03-09T12:27:32.109Z,99192.69
2019-03-09T12:30:03.771Z,99205.20
2019-03-09T12:32:32.092Z,99184.41
2019-03-09T12:35:01.140Z,99209.95
2019-03-09T12:37:30.355Z,99190.73
2019-03-09T12:39:59.376Z,99191.70
2019-03-09T12:42:28.602Z,99192.47
2019-03-09T12:44:57.697Z,99171.27
2019-03-09T12:47:27.044Z,99182.06
2019-03-09T12:49:56.238Z,99150.26
2019-03-09T12:52:25.295Z,99151.02
2019-03-09T12:54:54.392Z,99150.47
2019-03-09T12:57:23.486Z,99134.09
2019-03-09T12:59:52.539Z,99147.50
2019-03-09T13:02:21.642Z,99152.50
2019-03-09T13:04:50.767Z,99146.29
2019-03-09T13:07:19.812Z,99125.59
2019-03-09T13:09:48.849Z,99129.81
2019-03-09T13:12:17.955Z,99115.80
2019-03-09T13:14:47.075Z,99137.25
2019-03-09T13:17:16.155Z,99101.11
2019-03-09T13:19:45.302Z,99109.37
2019-03-09T13:22:14.458Z,99100.90
2019-03-09T13:24:43.692Z,99089.50
2019-03-09T13:27:12.871Z,99077.77
2019-03-09T13:29:41.960Z,99118.84
2019-03-09T13:32:11.148Z,99102.34
2019-03-09T13:34:40.256Z,99115.80
2019-03-09T13:37:09.393Z,99097.46
2019-03-09T13:39:38.414Z,99101.64
2019-03-09T13:42:07.685Z,99075.98
2019-03-09T13:44:36.800Z,99061.09
2019-03-09T13:47:05.862Z,99065.05
2019-03-09T13:49:37.388Z,99090.05
2019-03-09T13:52:06.521Z,99078.70
2019-03-09T13:54:35.624Z,99080.55
2019-03-09T13:57:04.987Z,99077.00
2019-03-09T13:59:34.044Z,99056.23
2019-03-09T14:02:03.118Z,99044.80
2019-03-09T14:04:32.302Z,99043.84
2019-03-09T14:07:01.407Z,99054.77
2019-03-09T14:09:30.520Z,99065.78
2019-03-09T14:11:59.748Z,99048.45
2019-03-09T14:14:29.034Z,99051.61
2019-03-09T14:16:58.128Z,99057.90
2019-03-09T14:19:27.287Z,99077.20
2019-03-09T14:21:56.373Z,98964.81
2019-03-09T14:24:25.472Z,99045.09
2019-03-09T14:26:54.563Z,99049.08
2019-03-09T14:29:23.767Z,99042.40
2019-03-09T14:31:52.862Z,99056.86
2019-03-09T14:34:22.126Z,99054.78
2019-03-09T14:36:51.286Z,99051.39
2019-03-09T14:39:20.404Z,99039.27
2019-03-09T14:41:49.487Z,99048.76
2019-03-09T14:44:18.756Z,99046.74
2019-03-09T14:46:47.916Z,99032.53
2019-03-09T14:49:17.181Z,99048.67
2019-03-09T14:51:46.272Z,99009.58
2019-03-09T14:54:15.422Z,99033.14
2019-03-09T14:56:44.485Z,99026.92
2019-03-09T14:59:13.583Z,99019.98
2019-03-09T15:01:42.707Z,99013.48
2019-03-09T15:04:11.838Z,99002.45
2019-03-09T15:06:40.912Z,99006.59
2019-03-09T15:09:10.045Z,99024.42
2019-03-09T15:11:39.142Z,99032.70
2019-03-09T15:14:08.212Z,99058.11
2019-03-09T15:16:37.451Z,99044.74
2019-03-09T15:19:06.527Z,99016.44
2019-03-09T15:21:35.539Z,99035.48
2019-03-09T15:24:04.725Z,99052.37
2019-03-09T15:26:33.770Z,99016.50
2019-03-09T15:29:03.023Z,99020.11
2019-03-09T15:31:32.273Z,99000.64
2019-03-09T15:34:01.377Z,99009.33
2019-03-09T15:36:30.669Z,99004.52
2019-03-09T15:38:59.695Z,98977.14
2019-03-09T15:41:28.828Z,98983.48
2019-03-09T15:43:58.093Z,99011.94
2019-03-09T15:46:27.164Z,99035.84
2019-03-09T15:48:56.307Z,99017.72
2019-03-09T15:51:25.492Z,99005.08
2019-03-09T15:53:54.522Z,99038.88
2019-03-09T15:56:23.676Z,99050.39
2019-03-09T15:58:52.748Z,99068.04
2019-03-09T16:01:21.950Z,99089.73
2019-03-09T16:03:54.103Z,99146.66
2019-03-09T16:06:23.269Z,99182.88
2019-03-09T16:08:52.330Z,99158.59
2019-03-09T16:11:21.594Z,99150.23
2019-03-09T16:13:50.762Z,99161.61
2019-03-09T16:16:19.839Z,99180.71
2019-03-09T16:18:48.936Z,99198.16
2019-03-09T16:21:17.999Z,99201.11
2019-03-09T16:23:47.146Z,99219.97
2019-03-09T16:26:16.246Z,99194.02
2019-03-09T17:16:47.822Z,99411.23
2019-03-09T17:19:17.067Z,99422.11
2019-03-09T17:21:46.396Z,99420.80
2019-03-09T17:24:15.676Z,99426.45
2019-03-09T17:26:44.831Z,99441.26
2019-03-09T17:29:14.069Z,99438.22
2019-03-09T17:31:43.409Z,99446.48
2019-03-09T17:34:12.712Z,99470.45
2019-03-09T17:36:41.883Z,99475.76
2019-03-09T17:39:11.618Z,99487.48
2019-03-09T17:41:40.784Z,99494.45
2019-03-09T17:44:10.071Z,99511.90
2019-03-09T17:46:39.134Z,99500.55
2019-03-09T17:49:08.230Z,99516.66
2019-03-09T17:51:37.338Z,99522.31
2019-03-09T17:54:06.463Z,99523.16
2019-03-09T17:56:35.614Z,99532.77
2019-03-09T17:59:04.790Z,99537.11
2019-03-09T18:01:33.887Z,99521.42
2019-03-09T18:04:03.041Z,99531.88
2019-03-09T18:06:32.202Z,99541.84
2019-03-09T18:09:01.345Z,99551.84
2019-03-09T18:11:30.426Z,99549.67
2019-03-09T18:14:07.029Z,99557.95
2019-03-09T18:16:30.512Z,99567.06
2019-03-09T18:18:59.581Z,99570.60
2019-03-09T18:21:28.703Z,99577.10
2019-03-09T18:23:57.789Z,99583.17
2019-03-09T18:26:26.843Z,99594.48
2019-03-09T18:28:57.109Z,99597.89
2019-03-09T18:31:26.193Z,99599.59
2019-03-09T18:33:55.351Z,99607.01
2019-03-09T18:36:24.521Z,99617.44
2019-03-09T18:38:53.664Z,99616.12
2019-03-09T18:41:22.924Z,99618.69
2019-03-09T18:43:52.031Z,99619.97
2019-03-09T18:46:21.156Z,99629.12
2019-03-09T18:48:50.265Z,99634.73
2019-03-09T18:51:19.396Z,99636.41
2019-03-09T18:53:48.584Z,99638.13
2019-03-09T18:56:17.730Z,99636.36
2019-03-09T18:58:46.959Z,99636.73
2019-03-09T19:01:16.145Z,99646.33
2019-03-09T19:03:45.306Z,99651.55
2019-03-09T19:06:14.417Z,99658.95
2019-03-09T19:08:43.544Z,99658.95
2019-03-09T19:11:12.635Z,99662.02
2019-03-09T19:13:41.746Z,99666.80
2019-03-09T19:16:10.898Z,99663.75
2019-03-09T19:18:40.070Z,99668.15
2019-03-09T19:21:09.221Z,99669.92
2019-03-09T19:23:38.423Z,99671.70
2019-03-09T19:26:07.557Z,99670.44
2019-03-09T19:28:36.620Z,99682.22
2019-03-09T19:31:05.784Z,99679.61
2019-03-09T19:33:34.818Z,99680.06
2019-03-09T19:36:03.970Z,99674.83
2019-03-09T19:38:33.197Z,99668.71
2019-03-09T19:41:02.323Z,99682.22
2019-03-09T19:43:31.592Z,99685.64
2019-03-09T19:46:00.715Z,99696.07
2019-03-09T19:48:30.018Z,99696.48
2019-03-09T19:50:59.086Z,99692.56
2019-03-09T19:53:28.210Z,99693.40
2019-03-09T19:55:57.374Z,99700.41
2019-03-09T19:58:26.521Z,99705.65
2019-03-09T20:00:55.673Z,99708.73
2019-03-09T20:03:24.873Z,99706.11
2019-03-09T20:05:53.992Z,99701.72
2019-03-09T20:08:23.369Z,99702.62
2019-03-09T20:10:52.563Z,99703.50
2019-03-09T20:13:21.823Z,99701.34
2019-03-09T20:15:51.084Z,99710.93
2019-03-09T20:18:20.335Z,99707.43
2019-03-09T20:20:49.656Z,99713.09
2019-03-09T20:23:18.853Z,99711.36
2019-03-09T20:25:48.100Z,99712.28
2019-03-09T20:28:17.302Z,99710.56
2019-03-09T20:30:46.734Z,99718.02
2019-03-09T20:33:15.997Z,99715.45
2019-03-09T20:35:45.133Z,99713.26
2019-03-09T20:38:14.361Z,99711.98
2019-03-09T20:40:43.483Z,99708.06
2019-03-09T20:43:12.631Z,99711.56
2019-03-09T20:45:41.784Z,99719.84
2019-03-09T20:48:10.921Z,99717.69
2019-03-09T20:50:40.138Z,99721.61
2019-03-09T20:53:09.302Z,99720.34
2019-03-09T20:55:38.453Z,99726.88
2019-03-09T20:58:07.520Z,99726.03
2019-03-09T21:00:36.658Z,99724.72
2019-03-09T21:03:05.905Z,99728.66
2019-03-09T21:05:36.886Z,99730.88
2019-03-09T21:08:06.233Z,99730.88
2019-03-09T21:10:35.464Z,99734.38
2019-03-09T21:13:06.307Z,99728.69
2019-03-09T21:15:35.477Z,99723.91
2019-03-09T21:18:04.827Z,99720.41
2019-03-09T21:20:34.152Z,99730.88
2019-03-09T21:23:03.497Z,99727.84
2019-03-09T21:25:32.663Z,99733.08
2019-03-09T21:28:01.895Z,99732.19
2019-03-09T21:30:31.069Z,99730.00
2019-03-09T21:33:00.193Z,99729.58
2019-03-09T21:35:29.419Z,99727.84
2019-03-09T21:37:58.575Z,99729.58
2019-03-09T21:40:28.582Z,99730.45
2019-03-09T21:42:57.770Z,99727.80
2019-03-09T21:45:26.892Z,99734.31
2019-03-09T21:47:56.150Z,99733.00
2019-03-09T21:50:25.541Z,99730.38
2019-03-09T21:52:54.683Z,99731.66
2019-03-09T21:55:23.865Z,99722.03
2019-03-09T21:57:53.107Z,99724.22
2019-03-09T22:00:22.438Z,99726.38
2019-03-09T22:02:51.679Z,99727.66
2019-03-09T22:05:20.921Z,99724.61
2019-03-09T22:07:50.234Z,99721.11
2019-03-09T22:10:19.534Z,99727.23
2019-03-09T22:12:48.768Z,99732.88
2019-03-09T22:15:18.884Z,99730.70
2019-03-09T22:17:48.237Z,99732.88
2019-03-09T22:20:17.361Z,99732.89
2019-03-09T22:22:46.526Z,99735.51
2019-03-09T22:25:15.682Z,99730.27
2019-03-09T22:27:44.882Z,99732.05
2019-03-09T22:30:14.300Z,99730.27
2019-03-09T22:32:43.524Z,99738.59
2019-03-09T22:35:12.944Z,99741.59
2019-03-09T22:37:42.086Z,99738.12
2019-03-09T22:40:11.521Z,99729.84
2019-03-09T22:42:40.645Z,99730.73
2019-03-09T22:45:10.511Z,99732.85
2019-03-09T22:47:39.675Z,99736.35
2019-03-09T22:50:10.746Z,99727.61
2019-03-09T22:52:40.076Z,99729.80
2019-03-09T22:55:10.802Z,99724.11
2019-03-09T22:57:40.021Z,99727.57
2019-03-09T23:00:11.293Z,99728.88
2019-03-09T23:02:40.549Z,99721.02
2019-03-09T23:05:10.788Z,99722.76
2019-03-09T23:07:39.935Z,99730.99
2019-03-09T23:10:11.021Z,99726.64
2019-03-09T23:12:40.124Z,99727.06
2019-03-09T23:15:10.599Z,99723.60
2019-03-09T23:17:39.837Z,99726.18
2019-03-09T23:20:10.557Z,99719.63
2019-03-09T23:22:39.568Z,99722.62
2019-03-09T23:25:09.440Z,99720.43
2019-03-09T23:27:38.509Z,99713.41
2019-03-09T23:30:09.845Z,99707.75
2019-03-09T23:32:38.877Z,99698.59
2019-03-09T23:35:08.086Z,99696.40
2019-03-09T23:37:37.229Z,99689.47
2019-03-09T23:40:06.692Z,99691.67
2019-03-09T23:42:35.731Z,99688.63
2019-03-09T23:45:04.983Z,99692.14
2019-03-09T23:47:34.068Z,99691.71
2019-03-09T23:50:03.246Z,99685.59
2019-03-09T23:52:32.280Z,99683.40
2019-03-09T23:55:01.505Z,99676.84
2019-03-09T23:57:30.848Z,99679.05
